Time;durP1;ratioP1;P1;durP2;ratioP2;P2;SDS_P1;SDS_P2;PMS_P1;PMS_P2;Temp;Humidity;BMP_temperature;BMP_pressure;BME280_temperature;BME280_humidity;BME280_pressure;Samples;Min_cycle;Max_cycle;Signal;HPM_P1;HPM_P2
2021/06/06 00:01:43;;;;;;;19.27;13.45;;;17.20;96.20;;;;;;5037764;28;20052;-86
2021/06/06 00:04:16;;;;;;;18.33;13.90;;;17.20;96.30;;;;;;5021492;28;20097;-85
2021/06/06 00:06:42;;;;;;;20.05;14.52;;;17.10;96.20;;;;;;5054318;28;20419;-85
2021/06/06 00:09:13;;;;;;;18.00;12.82;;;17.10;96.10;;;;;;5054227;28;20020;-85
2021/06/06 00:11:46;;;;;;;19.85;14.50;;;17.10;96.10;;;;;;5072431;28;20095;-85
2021/06/06 00:14:17;;;;;;;20.02;13.75;;;17.10;96.10;;;;;;5054295;28;20017;-85
2021/06/06 00:16:51;;;;;;;19.50;13.63;;;17.10;96.10;;;;;;5054159;28;20477;-85
2021/06/06 00:19:19;;;;;;;17.15;12.27;;;17.10;96.20;;;;;;5072093;28;20373;-85
2021/06/06 00:21:45;;;;;;;20.08;13.85;;;17.10;96.20;;;;;;5053900;28;20062;-85
2021/06/06 00:24:13;;;;;;;18.23;13.35;;;17.00;96.30;;;;;;5054064;28;20473;-85
2021/06/06 00:26:39;;;;;;;19.98;13.90;;;17.00;96.30;;;;;;5053690;28;20028;-85
2021/06/06 00:29:05;;;;;;;20.95;13.88;;;17.00;96.30;;;;;;5037292;28;20028;-85
2021/06/06 00:31:31;;;;;;;17.92;13.20;;;17.00;96.30;;;;;;5053770;28;20025;-85
2021/06/06 00:33:57;;;;;;;17.88;13.98;;;17.00;96.40;;;;;;5053514;28;20067;-85
2021/06/06 00:36:23;;;;;;;22.73;14.13;;;17.00;96.40;;;;;;5054140;28;20021;-85
2021/06/06 00:38:50;;;;;;;22.83;15.45;;;17.00;96.50;;;;;;5054386;28;20478;-85
2021/06/06 00:41:18;;;;;;;18.85;13.65;;;16.90;96.50;;;;;;5053760;28;20021;-85
2021/06/06 00:43:45;;;;;;;21.17;14.40;;;16.90;96.50;;;;;;5052896;28;20024;-85
2021/06/06 00:46:11;;;;;;;22.02;14.95;;;16.90;96.50;;;;;;5037061;28;20028;-86
2021/06/06 00:48:36;;;;;;;25.92;16.05;;;16.90;96.60;;;;;;5038915;28;20024;-85
2021/06/06 00:51:18;;;;;;;22.38;15.65;;;16.90;96.60;;;;;;5057691;28;20389;-85
2021/06/06 00:53:51;;;;;;;21.27;14.50;;;16.90;96.50;;;;;;5075658;28;20100;-86
2021/06/06 00:56:24;;;;;;;27.08;17.00;;;16.90;96.50;;;;;;5075747;28;20485;-85
2021/06/06 00:58:54;;;;;;;27.00;15.63;;;16.90;96.50;;;;;;5064787;23;20055;-85
2021/06/06 01:01:21;;;;;;;24.02;15.13;;;16.90;96.50;;;;;;5077340;28;20027;-85
2021/06/06 01:03:48;;;;;;;24.27;15.27;;;16.90;96.50;;;;;;5091031;28;20107;-84
2021/06/06 01:06:19;;;;;;;25.83;15.65;;;16.90;96.50;;;;;;5068876;28;20031;-84
2021/06/06 01:08:44;;;;;;;22.73;14.77;;;16.90;96.60;;;;;;5065662;28;20056;-84
2021/06/06 01:11:19;;;;;;;28.48;17.60;;;16.90;96.60;;;;;;5040519;28;20052;-85
2021/06/06 01:13:52;;;;;;;23.33;16.05;;;16.90;96.60;;;;;;5075256;28;20033;-84
2021/06/06 01:16:31;;;;;;;25.10;16.50;;;16.90;96.60;;;;;;5073692;28;20024;-84
2021/06/06 01:18:59;;;;;;;25.95;16.50;;;16.90;96.60;;;;;;5073790;28;20143;-85
2021/06/06 01:21:31;;;;;;;26.67;16.52;;;16.90;96.60;;;;;;5057003;28;20028;-85
2021/06/06 01:24:07;;;;;;;26.77;15.65;;;16.80;96.50;;;;;;5073658;28;20559;-85
2021/06/06 01:26:34;;;;;;;25.25;15.80;;;16.80;96.60;;;;;;5073491;28;20021;-84
2021/06/06 01:29:31;;;;;;;25.75;15.50;;;16.90;96.70;;;;;;5073389;28;20465;-84
2021/06/06 01:32:03;;;;;;;24.25;15.27;;;16.90;96.70;;;;;;5070418;28;20036;-85
2021/06/06 01:34:31;;;;;;;22.27;14.73;;;16.90;96.70;;;;;;5066528;28;20385;-85
2021/06/06 01:37:03;;;;;;;26.65;14.65;;;16.80;96.70;;;;;;5073305;28;20107;-84
2021/06/06 01:39:36;;;;;;;29.13;15.68;;;16.80;96.70;;;;;;5074974;28;20465;-84
2021/06/06 01:42:14;;;;;;;24.33;14.90;;;16.80;96.70;;;;;;5073307;28;20028;-84
2021/06/06 01:44:45;;;;;;;25.88;14.80;;;16.80;96.70;;;;;;5060529;28;20426;-85
2021/06/06 01:47:17;;;;;;;25.92;15.07;;;16.80;96.80;;;;;;5074035;28;20029;-85
2021/06/06 01:49:50;;;;;;;23.35;13.00;;;16.80;96.70;;;;;;5073292;28;20017;-84
2021/06/06 01:52:18;;;;;;;26.88;14.85;;;16.80;96.60;;;;;;5073058;28;20016;-84
2021/06/06 01:54:45;;;;;;;24.58;13.68;;;16.80;96.60;;;;;;5056596;28;20123;-85
2021/06/06 01:57:15;;;;;;;23.48;13.63;;;16.70;96.70;;;;;;5039784;28;20032;-85
2021/06/06 01:59:49;;;;;;;27.55;14.80;;;16.70;96.80;;;;;;5072119;28;20071;-85
2021/06/06 02:02:15;;;;;;;23.00;14.18;;;16.70;96.70;;;;;;5072976;28;20040;-84
2021/06/06 02:04:42;;;;;;;22.42;13.43;;;16.70;96.70;;;;;;5072974;28;20106;-84
2021/06/06 02:07:31;;;;;;;26.35;15.75;;;16.70;96.70;;;;;;5056147;28;20029;-84
2021/06/06 02:10:09;;;;;;;23.38;14.07;;;16.70;96.80;;;;;;5072952;28;20013;-85
2021/06/06 02:12:38;;;;;;;26.23;14.20;;;16.70;96.80;;;;;;5058739;28;20086;-85
2021/06/06 02:15:29;;;;;;;26.35;15.32;;;16.70;96.80;;;;;;5089618;28;20027;-84
2021/06/06 02:17:56;;;;;;;25.63;15.60;;;16.70;96.80;;;;;;5071696;28;20095;-84
2021/06/06 02:20:25;;;;;;;23.67;15.30;;;16.70;96.80;;;;;;5072397;28;20111;-85
2021/06/06 02:22:52;;;;;;;25.88;15.50;;;16.60;96.70;;;;;;5069125;28;20040;-85
2021/06/06 02:25:18;;;;;;;29.35;16.15;;;16.60;96.60;;;;;;5025601;28;20028;-85
2021/06/06 02:28:09;;;;;;;24.40;15.32;;;16.60;96.60;;;;;;5028015;28;20033;-84
2021/06/06 02:30:54;;;;;;;23.20;14.98;;;16.60;96.60;;;;;;5072434;28;20051;-85
2021/06/06 02:33:37;;;;;;;26.73;16.42;;;16.60;96.70;;;;;;5072418;28;20363;-84
2021/06/06 02:36:06;;;;;;;29.80;17.48;;;16.60;96.70;;;;;;5075798;28;20023;-84
2021/06/06 02:38:38;;;;;;;26.73;17.10;;;16.60;96.70;;;;;;5072520;28;20029;-84
2021/06/06 02:41:26;;;;;;;26.75;16.95;;;16.60;96.80;;;;;;5072195;28;20382;-84
2021/06/06 02:43:59;;;;;;;28.10;18.13;;;16.60;96.80;;;;;;5014591;28;20614;-84
2021/06/06 02:46:25;;;;;;;25.48;17.52;;;16.60;96.80;;;;;;5066141;28;20477;-84
2021/06/06 02:49:01;;;;;;;28.33;18.10;;;16.60;96.80;;;;;;5055452;28;20075;-83
2021/06/06 02:51:28;;;;;;;31.65;19.45;;;16.60;96.70;;;;;;5064499;28;20025;-85
2021/06/06 02:54:01;;;;;;;31.88;18.85;;;16.50;96.80;;;;;;5056065;28;20106;-84
2021/06/06 02:56:34;;;;;;;30.95;18.10;;;16.50;96.80;;;;;;5071786;28;20473;-85
2021/06/06 02:59:05;;;;;;;26.08;17.73;;;16.50;96.80;;;;;;5071514;28;20044;-84
2021/06/06 03:01:42;;;;;;;28.05;17.80;;;16.50;96.80;;;;;;5068553;28;20025;-84
2021/06/06 03:04:15;;;;;;;27.27;18.00;;;16.50;96.80;;;;;;5051755;28;20025;-84
2021/06/06 03:06:47;;;;;;;27.65;17.92;;;16.50;96.80;;;;;;5074939;28;20020;-84
2021/06/06 03:09:15;;;;;;;28.70;18.20;;;16.50;96.80;;;;;;5071678;28;20094;-84
2021/06/06 03:11:43;;;;;;;28.73;17.92;;;16.50;96.80;;;;;;5070493;28;20013;-84
2021/06/06 03:14:14;;;;;;;25.40;17.88;;;16.50;96.90;;;;;;5072898;28;20027;-84
2021/06/06 03:16:56;;;;;;;27.65;17.08;;;16.50;96.90;;;;;;5071492;28;20067;-84
2021/06/06 03:19:24;;;;;;;26.13;17.52;;;16.50;97.00;;;;;;5088312;28;20086;-84
2021/06/06 03:21:51;;;;;;;25.02;17.27;;;16.50;97.00;;;;;;5066311;28;20379;-84
2021/06/06 03:24:40;;;;;;;28.33;18.00;;;16.40;96.90;;;;;;5046319;28;20481;-84
2021/06/06 03:27:09;;;;;;;29.23;19.10;;;16.50;96.90;;;;;;5064605;28;20041;-84
2021/06/06 03:29:48;;;;;;;29.58;18.35;;;16.40;96.80;;;;;;5063664;28;20473;-84
2021/06/06 03:32:15;;;;;;;32.13;19.70;;;16.50;96.90;;;;;;5071256;28;20386;-84
2021/06/06 03:34:40;;;;;;;30.88;18.63;;;16.50;96.90;;;;;;5071131;28;20016;-84
2021/06/06 03:37:06;;;;;;;32.10;19.90;;;16.50;97.00;;;;;;5054596;28;20047;-84
2021/06/06 03:39:32;;;;;;;30.70;20.58;;;16.50;97.00;;;;;;5064369;28;20035;-84
2021/06/06 03:41:59;;;;;;;37.63;21.92;;;16.50;97.00;;;;;;5037845;28;20496;-84
2021/06/06 03:44:26;;;;;;;38.80;23.60;;;16.50;97.00;;;;;;5072352;28;20056;-84
2021/06/06 03:46:53;;;;;;;37.92;24.10;;;16.50;97.00;;;;;;5071077;28;20026;-84
2021/06/06 03:49:20;;;;;;;39.42;25.60;;;16.50;97.00;;;;;;5071150;28;20079;-84
2021/06/06 03:51:46;;;;;;;38.22;24.25;;;16.40;97.00;;;;;;5071031;28;20025;-84
2021/06/06 03:54:14;;;;;;;34.83;23.30;;;16.40;97.00;;;;;;5070970;28;20091;-84
2021/06/06 03:56:42;;;;;;;36.10;22.65;;;16.50;97.10;;;;;;5072272;28;20028;-84
2021/06/06 03:59:09;;;;;;;34.67;21.50;;;16.50;97.10;;;;;;5070548;28;20044;-84
2021/06/06 04:01:35;;;;;;;29.75;20.40;;;16.50;97.10;;;;;;5054214;28;20115;-84
2021/06/06 04:04:01;;;;;;;30.80;19.88;;;16.50;97.10;;;;;;5070876;28;20090;-84
2021/06/06 04:06:27;;;;;;;31.30;20.45;;;16.50;97.10;;;;;;5070814;28;20039;-84
2021/06/06 04:08:52;;;;;;;35.58;22.23;;;16.50;97.00;;;;;;5072122;28;20024;-84
2021/06/06 04:11:18;;;;;;;34.08;22.52;;;16.40;96.90;;;;;;5053962;28;20028;-84
2021/06/06 04:13:44;;;;;;;35.33;22.48;;;16.40;97.00;;;;;;5061063;28;20484;-84
2021/06/06 04:16:10;;;;;;;36.92;24.20;;;16.40;97.00;;;;;;5017415;28;20032;-85
2021/06/06 04:18:36;;;;;;;38.78;23.08;;;16.40;96.90;;;;;;5053990;28;20025;-84
2021/06/06 04:21:10;;;;;;;33.92;21.02;;;16.40;97.00;;;;;;5056506;28;20090;-84
2021/06/06 04:23:36;;;;;;;35.42;22.42;;;16.40;97.30;;;;;;5072332;28;20021;-84
2021/06/06 04:26:03;;;;;;;33.67;21.85;;;16.40;97.00;;;;;;5057945;28;20043;-84
2021/06/06 04:28:29;;;;;;;28.27;20.05;;;16.40;97.10;;;;;;5057822;28;20382;-84
2021/06/06 04:30:55;;;;;;;24.90;18.15;;;16.40;97.10;;;;;;5058009;28;20035;-84
2021/06/06 04:33:22;;;;;;;26.08;18.25;;;16.40;97.10;;;;;;5074639;28;20422;-84
2021/06/06 04:35:48;;;;;;;24.77;17.83;;;16.40;97.10;;;;;;5074584;28;20022;-84
2021/06/06 04:38:18;;;;;;;24.80;17.83;;;16.40;97.00;;;;;;5060627;28;20127;-84
2021/06/06 04:40:44;;;;;;;26.35;17.98;;;16.40;97.00;;;;;;5066763;28;20021;-84
2021/06/06 04:43:11;;;;;;;28.27;18.65;;;16.30;96.90;;;;;;5055550;28;20059;-84
2021/06/06 04:45:37;;;;;;;23.70;16.73;;;16.30;97.00;;;;;;5075870;28;20151;-84
2021/06/06 04:48:29;;;;;;;29.83;17.83;;;16.40;97.10;;;;;;5074360;28;20115;-84
2021/06/06 04:50:56;;;;;;;28.15;17.60;;;16.30;97.00;;;;;;5065640;28;20013;-84
2021/06/06 04:53:22;;;;;;;24.35;17.42;;;16.30;97.00;;;;;;5070639;28;20024;-84
2021/06/06 04:55:49;;;;;;;22.85;15.98;;;16.30;97.10;;;;;;5041061;28;20012;-84
2021/06/06 04:58:19;;;;;;;27.30;17.13;;;16.30;97.10;;;;;;5074027;28;20028;-84
2021/06/06 05:00:45;;;;;;;25.58;16.92;;;16.30;97.20;;;;;;5073381;28;20021;-84
2021/06/06 05:03:12;;;;;;;22.95;16.13;;;16.30;97.20;;;;;;5062208;28;20041;-84
2021/06/06 05:05:38;;;;;;;25.70;16.80;;;16.30;97.20;;;;;;5043185;28;20029;-84
2021/06/06 05:08:04;;;;;;;28.23;16.98;;;16.30;97.20;;;;;;5037504;28;20033;-84
2021/06/06 05:10:33;;;;;;;22.23;15.63;;;16.30;97.10;;;;;;5037622;28;20386;-84
2021/06/06 05:12:59;;;;;;;26.88;16.08;;;16.30;97.20;;;;;;5068647;28;20021;-85
2021/06/06 05:15:25;;;;;;;21.45;14.68;;;16.30;97.20;;;;;;5034350;28;20040;-85
2021/06/06 05:17:52;;;;;;;22.27;14.95;;;16.30;97.30;;;;;;5072201;28;20056;-84
2021/06/06 05:20:22;;;;;;;25.67;15.77;;;16.30;97.30;;;;;;5072701;28;20075;-85
2021/06/06 05:22:47;;;;;;;21.85;15.13;;;16.30;97.30;;;;;;5073853;28;20036;-84
2021/06/06 05:25:14;;;;;;;23.55;14.90;;;16.30;97.40;;;;;;5072714;28;20020;-84
2021/06/06 05:27:39;;;;;;;24.15;15.63;;;16.30;97.40;;;;;;5063172;28;20098;-84
2021/06/06 05:30:11;;;;;;;23.77;14.95;;;16.30;97.50;;;;;;5068851;28;20481;-84
2021/06/06 05:32:36;;;;;;;22.33;15.18;;;16.30;97.50;;;;;;5073362;28;20111;-84
2021/06/06 05:35:04;;;;;;;22.33;14.50;;;16.30;97.50;;;;;;5055529;28;20131;-84
2021/06/06 05:37:30;;;;;;;21.35;13.93;;;16.30;97.50;;;;;;5073299;28;20517;-84
2021/06/06 05:39:56;;;;;;;21.00;14.68;;;16.30;97.50;;;;;;5055811;28;20056;-84
2021/06/06 05:42:22;;;;;;;23.95;16.00;;;16.30;97.50;;;;;;5073527;28;20028;-84
2021/06/06 05:44:47;;;;;;;21.48;14.18;;;16.30;97.50;;;;;;5049807;28;20028;-84
2021/06/06 05:47:14;;;;;;;20.02;13.32;;;16.30;97.50;;;;;;5056794;28;20115;-84
2021/06/06 05:49:39;;;;;;;19.20;13.27;;;16.30;97.60;;;;;;5074395;28;20082;-85
2021/06/06 05:52:05;;;;;;;23.05;14.68;;;16.30;97.60;;;;;;5053101;28;20037;-84
2021/06/06 05:54:31;;;;;;;20.52;13.98;;;16.30;97.60;;;;;;5073121;28;20098;-84
2021/06/06 05:56:56;;;;;;;21.42;14.52;;;16.30;97.60;;;;;;5056320;28;20179;-85
2021/06/06 05:59:23;;;;;;;19.35;13.63;;;16.30;97.60;;;;;;5061372;28;20126;-84
2021/06/06 06:01:48;;;;;;;19.45;13.32;;;16.40;97.70;;;;;;5072857;28;20044;-84
2021/06/06 06:04:14;;;;;;;20.38;14.50;;;16.40;97.70;;;;;;5053595;28;20029;-85
2021/06/06 06:06:40;;;;;;;19.23;13.30;;;16.40;97.70;;;;;;5061411;28;20122;-85
2021/06/06 06:09:06;;;;;;;18.77;12.98;;;16.40;97.70;;;;;;5058896;28;20029;-85
2021/06/06 06:11:32;;;;;;;21.23;14.98;;;16.40;97.70;;;;;;5074216;28;20044;-85
2021/06/06 06:13:58;;;;;;;18.55;13.68;;;16.40;97.70;;;;;;5056293;28;20131;-85
2021/06/06 06:16:38;;;;;;;22.10;15.27;;;16.40;97.70;;;;;;5056191;28;20048;-85
2021/06/06 06:19:09;;;;;;;20.83;14.65;;;16.40;97.70;;;;;;5043380;28;20025;-85
2021/06/06 06:21:35;;;;;;;24.70;14.40;;;16.40;97.70;;;;;;5073388;28;20469;-85
2021/06/06 06:24:02;;;;;;;22.15;15.05;;;16.40;97.70;;;;;;5072550;28;20028;-85
2021/06/06 06:26:28;;;;;;;19.08;13.02;;;16.40;98.00;;;;;;5057765;28;20033;-85
2021/06/06 06:28:54;;;;;;;19.90;14.30;;;16.40;97.70;;;;;;5059246;28;20032;-85
2021/06/06 06:31:20;;;;;;;19.27;14.25;;;16.40;97.70;;;;;;5060418;28;20496;-85
2021/06/06 06:33:46;;;;;;;23.45;14.43;;;16.40;97.80;;;;;;5082472;28;20119;-84
2021/06/06 06:36:13;;;;;;;20.17;13.90;;;16.50;97.80;;;;;;5056991;28;20387;-84
2021/06/06 06:38:39;;;;;;;19.13;14.18;;;16.50;97.80;;;;;;5073067;28;20016;-84
2021/06/06 06:41:06;;;;;;;19.85;13.77;;;16.40;97.80;;;;;;5038699;28;20127;-84
2021/06/06 06:43:32;;;;;;;18.83;13.95;;;16.40;97.80;;;;;;5059117;28;20543;-84
2021/06/06 06:45:58;;;;;;;22.88;15.85;;;16.50;97.80;;;;;;5074472;28;20020;-84
2021/06/06 06:48:27;;;;;;;24.05;16.25;;;16.50;97.80;;;;;;5071312;28;20373;-84
2021/06/06 06:50:55;;;;;;;23.35;16.45;;;16.50;97.80;;;;;;5072813;28;20385;-85
2021/06/06 06:53:46;;;;;;;22.10;16.90;;;16.50;97.80;;;;;;5058934;28;20021;-84
2021/06/06 06:56:13;;;;;;;25.08;17.85;;;16.50;97.80;;;;;;5071888;28;20024;-85
2021/06/06 06:58:41;;;;;;;26.63;18.52;;;16.50;97.80;;;;;;5060970;28;20027;-84
2021/06/06 07:01:08;;;;;;;26.63;18.08;;;16.50;97.90;;;;;;5055449;28;20086;-84
2021/06/06 07:03:34;;;;;;;29.75;19.15;;;16.50;97.80;;;;;;5055473;28;20110;-84
2021/06/06 07:06:05;;;;;;;27.90;18.60;;;16.60;97.90;;;;;;5052066;28;20025;-85
2021/06/06 07:08:35;;;;;;;22.85;17.52;;;16.60;97.90;;;;;;5063007;28;20370;-85
2021/06/06 07:11:02;;;;;;;25.17;17.08;;;16.60;97.90;;;;;;5088458;28;20355;-85
2021/06/06 07:13:28;;;;;;;24.02;16.77;;;16.70;97.90;;;;;;5053301;23;20481;-84
2021/06/06 07:15:56;;;;;;;24.67;17.20;;;16.70;97.90;;;;;;5018699;28;20041;-84
2021/06/06 07:18:22;;;;;;;27.13;16.75;;;16.70;98.00;;;;;;5051859;28;20099;-84
2021/06/06 07:20:54;;;;;;;21.55;15.68;;;16.70;97.90;;;;;;5035011;28;20033;-84
2021/06/06 07:23:32;;;;;;;22.00;15.60;;;16.70;97.90;;;;;;5034591;28;20021;-84
2021/06/06 07:26:00;;;;;;;22.25;15.77;;;16.70;97.90;;;;;;5035296;28;20520;-84
2021/06/06 07:28:31;;;;;;;21.55;15.60;;;16.80;97.90;;;;;;5034775;28;20045;-84
2021/06/06 07:31:00;;;;;;;20.05;14.60;;;16.80;97.90;;;;;;5051422;28;20106;-84
2021/06/06 07:33:30;;;;;;;17.90;13.93;;;16.80;97.90;;;;;;5051256;28;20017;-84
2021/06/06 07:35:57;;;;;;;21.80;15.50;;;16.80;97.90;;;;;;5050841;28;20009;-84
2021/06/06 07:38:24;;;;;;;20.65;14.00;;;16.90;97.90;;;;;;5034641;28;20501;-84
2021/06/06 07:40:52;;;;;;;18.13;13.93;;;16.90;97.80;;;;;;5044849;28;20485;-84
2021/06/06 07:43:25;;;;;;;19.25;12.93;;;16.90;97.80;;;;;;5050323;28;20024;-84
2021/06/06 07:45:51;;;;;;;19.38;14.00;;;16.90;97.80;;;;;;5072351;28;20028;-84
2021/06/06 07:48:17;;;;;;;17.63;13.50;;;16.90;97.80;;;;;;5058142;28;20036;-84
2021/06/06 07:50:45;;;;;;;17.40;12.45;;;16.90;97.80;;;;;;5054356;28;20496;-84
2021/06/06 07:53:13;;;;;;;15.18;12.40;;;16.90;97.70;;;;;;5054303;28;20051;-84
2021/06/06 07:55:39;;;;;;;15.02;11.80;;;16.90;97.70;;;;;;5048696;28;20021;-84
2021/06/06 07:58:05;;;;;;;14.48;11.32;;;16.90;97.70;;;;;;5059926;28;20124;-84
2021/06/06 08:00:39;;;;;;;14.48;11.50;;;17.00;97.70;;;;;;5042720;28;20123;-84
2021/06/06 08:03:05;;;;;;;15.32;11.90;;;17.00;97.70;;;;;;5050204;28;20085;-85
2021/06/06 08:05:34;;;;;;;14.77;11.35;;;17.00;97.70;;;;;;5037579;28;20390;-84
2021/06/06 08:08:00;;;;;;;14.43;10.48;;;17.00;97.70;;;;;;5039933;28;20474;-84
2021/06/06 08:10:27;;;;;;;14.05;10.90;;;17.00;97.70;;;;;;5047516;28;20028;-84
2021/06/06 08:12:52;;;;;;;14.35;10.20;;;17.00;97.60;;;;;;5053985;28;20073;-84
2021/06/06 08:15:19;;;;;;;15.55;11.45;;;17.00;97.90;;;;;;5002338;28;20120;-84
2021/06/06 08:17:45;;;;;;;14.82;10.70;;;17.00;97.60;;;;;;5062929;28;20028;-84
2021/06/06 08:20:16;;;;;;;11.55;9.68;;;17.10;97.60;;;;;;5004285;28;20025;-84
2021/06/06 08:22:42;;;;;;;10.82;9.32;;;17.10;97.60;;;;;;5034083;28;20059;-84
2021/06/06 08:25:11;;;;;;;11.75;9.43;;;17.10;97.50;;;;;;5033797;28;20107;-84
2021/06/06 08:27:38;;;;;;;12.13;9.23;;;17.20;97.60;;;;;;5042169;28;20028;-84
2021/06/06 08:30:09;;;;;;;11.32;8.68;;;17.20;97.50;;;;;;5050563;28;20025;-84
2021/06/06 08:32:35;;;;;;;9.85;8.60;;;17.20;97.50;;;;;;5065558;28;20348;-84
2021/06/06 08:35:01;;;;;;;10.70;8.68;;;17.20;97.50;;;;;;5033867;28;20493;-84
2021/06/06 08:37:27;;;;;;;12.15;8.98;;;17.20;97.50;;;;;;5033745;28;20029;-84
2021/06/06 08:39:52;;;;;;;9.60;8.60;;;17.30;97.50;;;;;;5050597;28;20108;-84
2021/06/06 08:42:23;;;;;;;11.15;9.10;;;17.30;97.40;;;;;;5016174;28;20099;-83
2021/06/06 08:45:30;;;;;;;10.20;8.80;;;17.30;97.30;;;;;;5050419;28;20017;-84
2021/06/06 08:47:58;;;;;;;13.05;9.65;;;17.30;97.30;;;;;;5008222;28;20060;-84
2021/06/06 08:50:29;;;;;;;9.98;8.07;;;17.30;97.30;;;;;;5026754;28;20024;-84
2021/06/06 08:53:13;;;;;;;11.05;8.38;;;17.40;97.50;;;;;;5050183;28;20035;-84
2021/06/06 08:56:20;;;;;;;10.52;7.22;;;17.40;97.20;;;;;;5059307;28;20025;-84
2021/06/06 08:58:46;;;;;;;10.35;7.78;;;17.40;97.20;;;;;;5053667;28;20036;-84
2021/06/06 09:01:47;;;;;;;7.32;6.15;;;17.50;97.30;;;;;;5054008;28;20416;-83
2021/06/06 09:04:23;;;;;;;9.27;6.03;;;17.50;97.20;;;;;;4955268;28;20038;-84
2021/06/06 09:06:51;;;;;;;7.78;6.50;;;17.60;97.20;;;;;;5056667;28;20439;-85
2021/06/06 09:09:23;;;;;;;7.10;5.63;;;17.60;97.20;;;;;;5053489;28;20035;-84
2021/06/06 09:11:50;;;;;;;7.90;6.03;;;17.70;97.20;;;;;;5045310;28;20103;-84
2021/06/06 09:14:17;;;;;;;6.55;5.22;;;17.70;97.10;;;;;;5043141;28;20045;-85
2021/06/06 09:16:56;;;;;;;7.40;5.95;;;17.70;97.00;;;;;;5037154;28;20033;-85
2021/06/06 09:19:24;;;;;;;8.60;5.63;;;17.80;97.00;;;;;;5066606;28;20024;-84
2021/06/06 09:22:00;;;;;;;7.35;5.85;;;17.80;97.00;;;;;;5039443;28;20033;-85
2021/06/06 09:24:34;;;;;;;7.28;5.78;;;17.90;97.00;;;;;;5066191;28;20492;-85
2021/06/06 09:27:12;;;;;;;8.68;5.97;;;17.90;96.90;;;;;;5056974;28;20116;-85
2021/06/06 09:29:38;;;;;;;7.50;5.63;;;17.90;96.90;;;;;;5056996;28;20485;-84
2021/06/06 09:32:07;;;;;;;6.53;5.20;;;18.00;96.90;;;;;;5040949;28;20037;-85
2021/06/06 09:34:33;;;;;;;8.98;5.50;;;18.00;96.90;;;;;;5033634;28;20021;-84
2021/06/06 09:37:08;;;;;;;6.97;5.22;;;18.10;96.90;;;;;;5031430;28;20040;-84
2021/06/06 09:39:43;;;;;;;8.95;5.30;;;18.10;96.80;;;;;;5054754;28;20474;-85
2021/06/06 09:42:27;;;;;;;7.65;5.63;;;18.10;96.80;;;;;;5053370;28;20052;-85
2021/06/06 09:45:21;;;;;;;6.20;4.65;;;18.20;96.80;;;;;;5053449;28;20112;-85
2021/06/06 09:48:27;;;;;;;6.90;4.90;;;18.20;96.80;;;;;;5017185;28;20045;-85
2021/06/06 09:50:54;;;;;;;7.63;4.60;;;18.30;96.80;;;;;;5004453;28;20033;-84
2021/06/06 09:53:31;;;;;;;6.53;4.85;;;18.30;96.80;;;;;;5054526;28;20033;-85
2021/06/06 09:56:24;;;;;;;7.25;5.10;;;18.40;96.80;;;;;;5036628;28;20102;-84
2021/06/06 09:58:50;;;;;;;7.78;4.45;;;18.40;96.70;;;;;;5036425;28;20025;-84
2021/06/06 10:01:59;;;;;;;6.32;5.03;;;18.50;96.70;;;;;;5036329;28;20017;-84
2021/06/06 10:04:36;;;;;;;7.38;5.40;;;18.50;96.20;;;;;;4975322;28;20474;-85
2021/06/06 10:07:28;;;;;;;6.22;4.90;;;18.60;96.30;;;;;;5036276;28;20115;-84
2021/06/06 10:09:56;;;;;;;5.53;4.25;;;18.60;96.40;;;;;;5062628;28;20054;-84
2021/06/06 10:12:48;;;;;;;6.65;4.60;;;18.60;96.30;;;;;;5056167;28;20428;-84
2021/06/06 10:15:31;;;;;;;5.53;4.32;;;18.60;96.30;;;;;;5033494;28;20041;-84
2021/06/06 10:18:08;;;;;;;5.85;4.72;;;18.70;96.30;;;;;;5036305;28;20136;-85
2021/06/06 10:20:39;;;;;;;5.25;4.20;;;18.70;96.20;;;;;;5052105;28;20028;-84
2021/06/06 10:23:31;;;;;;;5.40;4.25;;;18.80;96.20;;;;;;5064923;28;20032;-85
2021/06/06 10:26:04;;;;;;;5.45;4.35;;;18.90;96.20;;;;;;5060363;28;20025;-85
2021/06/06 10:28:40;;;;;;;5.25;4.32;;;18.90;96.20;;;;;;5047515;28;20029;-85
2021/06/06 10:31:28;;;;;;;6.32;5.00;;;19.00;96.20;;;;;;5055720;28;20386;-85
2021/06/06 10:34:05;;;;;;;6.00;4.20;;;19.00;96.20;;;;;;5038599;28;20025;-85
2021/06/06 10:36:34;;;;;;;5.30;4.10;;;19.10;96.20;;;;;;5052481;28;20021;-85
2021/06/06 10:39:01;;;;;;;4.88;3.63;;;19.10;96.20;;;;;;5052194;28;20048;-85
2021/06/06 10:41:54;;;;;;;5.00;3.85;;;19.20;96.20;;;;;;5052271;28;20040;-84
2021/06/06 10:44:29;;;;;;;4.70;3.85;;;19.20;96.20;;;;;;5052092;28;20021;-84
2021/06/06 10:47:25;;;;;;;5.18;3.78;;;19.30;96.20;;;;;;5052187;28;20087;-84
2021/06/06 10:49:56;;;;;;;4.75;3.83;;;19.30;96.10;;;;;;5034791;28;20033;-85
2021/06/06 10:52:34;;;;;;;5.32;3.97;;;19.40;96.00;;;;;;5052098;28;20021;-86
2021/06/06 10:55:33;;;;;;;5.38;3.80;;;19.50;95.90;;;;;;5053270;28;20506;-86
2021/06/06 10:58:47;;;;;;;4.55;3.70;;;19.50;95.90;;;;;;5051815;28;20013;-85
2021/06/06 11:01:18;;;;;;;4.75;3.60;;;19.60;95.90;;;;;;4977879;28;20134;-85
2021/06/06 11:03:46;;;;;;;6.45;3.92;;;19.60;95.90;;;;;;5036599;28;20382;-86
2021/06/06 11:06:31;;;;;;;4.90;4.03;;;19.60;95.90;;;;;;5035082;28;20449;-85
2021/06/06 11:08:57;;;;;;;5.65;4.43;;;19.70;95.70;;;;;;5035218;28;20075;-85
2021/06/06 11:11:32;;;;;;;4.97;3.67;;;19.70;96.00;;;;;;5051818;28;20017;-86
2021/06/06 11:14:10;;;;;;;6.35;4.25;;;19.70;95.70;;;;;;5034955;28;20074;-86
2021/06/06 11:16:48;;;;;;;4.78;3.70;;;19.80;95.70;;;;;;5051096;28;20020;-85
2021/06/06 11:19:34;;;;;;;5.63;4.22;;;19.80;95.60;;;;;;5034940;28;20044;-85
2021/06/06 11:22:05;;;;;;;4.93;3.75;;;19.90;95.50;;;;;;5039974;28;20025;-86
2021/06/06 11:24:40;;;;;;;4.93;3.60;;;19.90;95.50;;;;;;5049251;28;20500;-86
2021/06/06 11:27:15;;;;;;;5.10;3.30;;;20.00;95.50;;;;;;5054729;28;20439;-86
2021/06/06 11:29:44;;;;;;;5.22;3.42;;;20.00;95.30;;;;;;5041673;28;20020;-87
2021/06/06 11:32:14;;;;;;;6.38;3.90;;;20.00;95.30;;;;;;5041826;28;20025;-88
2021/06/06 11:34:47;;;;;;;4.82;3.40;;;20.10;95.40;;;;;;5045238;28;20116;-87
2021/06/06 11:37:28;;;;;;;5.03;3.60;;;20.20;95.40;;;;;;5051641;28;20093;-87
2021/06/06 11:39:53;;;;;;;;;;;20.20;95.30;;;;;;5053344;28;20064;-87
2021/06/06 11:42:22;;;;;;;4.97;3.55;;;20.30;95.20;;;;;;5050716;28;20388;-87
2021/06/06 11:44:53;;;;;;;4.50;3.17;;;20.30;95.20;;;;;;5062364;28;20075;-87
2021/06/06 11:47:43;;;;;;;5.32;3.80;;;20.40;95.20;;;;;;5034743;28;20092;-87
2021/06/06 11:50:18;;;;;;;5.17;3.30;;;20.40;95.20;;;;;;5063857;28;20078;-87
2021/06/06 11:52:52;;;;;;;5.43;3.63;;;20.50;95.20;;;;;;5052766;28;20079;-87
2021/06/06 11:55:29;;;;;;;5.30;3.53;;;20.50;94.90;;;;;;5064344;28;20031;-87
2021/06/06 11:58:09;;;;;;;4.28;3.58;;;20.60;94.80;;;;;;5051297;28;20027;-87
2021/06/06 12:00:45;;;;;;;4.28;3.63;;;20.60;94.60;;;;;;5052224;28;20025;-87
2021/06/06 12:03:17;;;;;;;6.13;3.35;;;20.70;94.60;;;;;;5051434;28;20052;-87
2021/06/06 12:06:22;;;;;;;4.05;3.03;;;20.70;94.50;;;;;;5035103;28;20033;-87
2021/06/06 12:08:54;;;;;;;3.92;3.20;;;20.80;94.50;;;;;;5051223;28;20609;-88
2021/06/06 12:11:20;;;;;;;3.38;2.80;;;20.80;94.30;;;;;;5056172;28;20023;-87
2021/06/06 12:13:47;;;;;;;3.70;2.92;;;20.90;94.20;;;;;;5054427;28;20481;-88
2021/06/06 12:16:18;;;;;;;3.80;2.90;;;21.00;94.30;;;;;;5054337;28;20027;-88
2021/06/06 12:18:46;;;;;;;;;;;21.10;93.90;;;;;;5051588;28;20067;-88
2021/06/06 12:21:23;;;;;;;4.38;2.80;;;21.20;93.90;;;;;;5036374;28;19905;-87
2021/06/06 12:24:02;;;;;;;4.65;2.65;;;21.20;93.90;;;;;;5054321;28;20039;-87
2021/06/06 12:26:31;;;;;;;4.72;2.70;;;21.20;93.90;;;;;;5054684;28;20049;-88
2021/06/06 12:28:58;;;;;;;4.50;2.88;;;21.30;93.90;;;;;;5060774;28;20397;-88
2021/06/06 12:31:29;;;;;;;5.40;3.63;;;21.30;93.70;;;;;;5038127;28;20021;-87
2021/06/06 12:34:08;;;;;;;3.97;2.90;;;21.30;93.40;;;;;;5052057;28;20029;-87
2021/06/06 12:36:35;;;;;;;3.42;2.97;;;21.30;93.30;;;;;;5050933;28;20090;-88
2021/06/06 12:39:05;;;;;;;4.75;3.00;;;21.40;93.30;;;;;;5034074;28;20021;-87
2021/06/06 12:41:34;;;;;;;3.88;2.83;;;21.40;93.10;;;;;;5050989;28;20021;-88
2021/06/06 12:44:01;;;;;;;3.42;2.53;;;21.50;93.10;;;;;;5034753;28;20032;-88
2021/06/06 12:46:27;;;;;;;3.70;2.60;;;21.50;93.00;;;;;;5054548;28;20025;-88
2021/06/06 12:49:03;;;;;;;3.05;2.33;;;21.60;92.70;;;;;;5038195;28;20033;-87
2021/06/06 12:51:43;;;;;;;3.75;2.50;;;21.60;92.70;;;;;;5056065;28;20024;-87
2021/06/06 12:54:32;;;;;;;3.67;2.38;;;21.70;92.70;;;;;;5055932;28;20021;-88
2021/06/06 12:57:15;;;;;;;2.92;2.20;;;21.70;92.40;;;;;;5055929;28;20482;-87